Time;durP1;ratioP1;P1;durP2;ratioP2;P2;SDS_P1;SDS_P2;PMS_P1;PMS_P2;Temp;Humidity;BMP_temperature;BMP_pressure;BME280_temperature;BME280_humidity;BME280_pressure;Samples;Min_cycle;Max_cycle;Signal;HPM_P1;HPM_P2
2021/01/02 00:01:30;;;;;;;27.03;11.87;;;;;;;;;;12878535;23;20229;-55
2021/01/02 00:06:43;;;;;;;32.07;12.33;;;;;;;;;;12879104;23;20185;-55
2021/01/02 00:11:53;;;;;;;32.33;13.43;;;;;;;;;;12879089;23;20556;-55
2021/01/02 00:17:16;;;;;;;35.07;13.37;;;;;;;;;;12877928;23;20270;-55
2021/01/02 00:22:23;;;;;;;36.37;14.40;;;;;;;;;;12876587;23;20178;-55
2021/01/02 00:27:26;;;;;;;35.10;14.90;;;;;;;;;;12877980;23;20214;-56
2021/01/02 00:32:37;;;;;;;37.33;15.23;;;;;;;;;;12879164;23;20206;-53
2021/01/02 00:37:41;;;;;;;34.43;15.73;;;;;;;;;;12882315;23;20167;-55
2021/01/02 00:42:44;;;;;;;38.07;16.20;;;;;;;;;;12884773;23;20516;-54
2021/01/02 00:47:46;;;;;;;44.20;17.73;;;;;;;;;;12883153;23;20741;-56
2021/01/02 00:53:02;;;;;;;43.90;17.97;;;;;;;;;;12882778;23;20587;-54
2021/01/02 00:58:06;;;;;;;42.43;17.20;;;;;;;;;;12884174;22;20422;-56
2021/01/02 01:03:12;;;;;;;45.77;18.73;;;;;;;;;;12884593;23;20207;-56
2021/01/02 01:08:15;;;;;;;50.17;19.53;;;;;;;;;;12881725;23;20515;-57
2021/01/02 01:13:19;;;;;;;51.27;18.90;;;;;;;;;;12885340;23;21053;-53
2021/01/02 01:18:38;;;;;;;46.13;17.67;;;;;;;;;;12882952;23;20637;-55
2021/01/02 01:23:55;;;;;;;44.67;18.83;;;;;;;;;;12884356;22;20186;-55
2021/01/02 01:28:59;;;;;;;47.73;19.27;;;;;;;;;;12883279;23;20213;-57
2021/01/02 01:34:05;;;;;;;45.90;18.37;;;;;;;;;;12883992;23;20590;-53
2021/01/02 01:39:06;;;;;;;43.30;18.20;;;;;;;;;;12881095;23;20202;-56
2021/01/02 01:44:42;;;;;;;42.23;18.33;;;;;;;;;;12885943;23;20186;-56
2021/01/02 01:49:59;;;;;;;44.07;19.43;;;;;;;;;;12883121;23;20199;-57
2021/01/02 01:55:04;;;;;;;41.83;17.23;;;;;;;;;;12860803;22;20258;-53
2021/01/02 02:00:08;;;;;;;39.53;17.30;;;;;;;;;;12883884;23;20631;-56
2021/01/02 02:05:11;;;;;;;37.93;16.80;;;;;;;;;;12885354;23;20307;-55
2021/01/02 02:10:14;;;;;;;38.90;17.37;;;;;;;;;;12883161;23;20515;-55
2021/01/02 02:15:19;;;;;;;37.30;16.70;;;;;;;;;;12886619;23;20182;-56
2021/01/02 02:20:23;;;;;;;41.60;17.47;;;;;;;;;;12882784;23;20178;-56
2021/01/02 02:25:26;;;;;;;43.33;16.97;;;;;;;;;;12884865;23;20171;-55
2021/01/02 02:30:34;;;;;;;46.27;19.13;;;;;;;;;;12883648;23;20222;-54
2021/01/02 02:35:36;;;;;;;41.33;18.73;;;;;;;;;;12884917;23;20174;-55
2021/01/02 02:40:38;;;;;;;42.27;17.37;;;;;;;;;;12883441;23;20213;-58
2021/01/02 02:45:41;;;;;;;42.00;19.40;;;;;;;;;;12884956;23;20692;-55
2021/01/02 02:50:44;;;;;;;40.93;18.47;;;;;;;;;;12881909;23;20206;-54
2021/01/02 02:55:46;;;;;;;41.67;19.20;;;;;;;;;;12885584;23;20179;-57
2021/01/02 03:00:48;;;;;;;45.33;19.27;;;;;;;;;;12883595;23;20515;-56
2021/01/02 03:05:52;;;;;;;41.87;18.97;;;;;;;;;;12880583;23;20860;-54
2021/01/02 03:10:54;;;;;;;40.57;18.37;;;;;;;;;;12886198;23;20207;-55
2021/01/02 03:15:57;;;;;;;42.30;19.53;;;;;;;;;;12885600;23;20175;-54
2021/01/02 03:21:00;;;;;;;49.70;20.47;;;;;;;;;;12887920;23;21110;-55
2021/01/02 03:26:03;;;;;;;45.10;19.93;;;;;;;;;;12887584;23;20214;-54
2021/01/02 03:31:05;;;;;;;45.10;19.40;;;;;;;;;;12910889;23;20207;-54
2021/01/02 03:36:08;;;;;;;43.87;19.63;;;;;;;;;;12890247;23;20179;-56
2021/01/02 03:41:09;;;;;;;47.40;20.97;;;;;;;;;;12890799;23;20946;-55
2021/01/02 03:46:12;;;;;;;42.30;20.07;;;;;;;;;;12887992;23;20179;-56
2021/01/02 03:51:14;;;;;;;48.67;21.50;;;;;;;;;;12886536;23;20211;-57
2021/01/02 03:56:15;;;;;;;45.13;20.30;;;;;;;;;;12887053;23;20183;-55
2021/01/02 04:01:18;;;;;;;51.67;21.87;;;;;;;;;;12890055;23;20179;-54
2021/01/02 04:06:23;;;;;;;43.43;21.37;;;;;;;;;;12885758;23;20175;-57
2021/01/02 04:11:25;;;;;;;53.17;22.47;;;;;;;;;;12910860;23;20191;-56
2021/01/02 04:16:31;;;;;;;48.10;20.40;;;;;;;;;;12886660;23;20175;-56
2021/01/02 04:21:33;;;;;;;47.33;22.17;;;;;;;;;;12909931;23;20210;-57
2021/01/02 04:26:35;;;;;;;51.97;22.87;;;;;;;;;;12886323;23;20646;-55
2021/01/02 04:31:39;;;;;;;52.87;22.30;;;;;;;;;;12886954;23;20744;-55
2021/01/02 04:36:40;;;;;;;48.70;21.77;;;;;;;;;;12886112;23;20534;-55
2021/01/02 04:41:42;;;;;;;49.47;23.07;;;;;;;;;;12887749;23;20171;-56
2021/01/02 04:46:45;;;;;;;48.73;22.37;;;;;;;;;;12887954;23;20668;-56
2021/01/02 04:51:47;;;;;;;52.50;23.40;;;;;;;;;;12883934;23;20207;-56
2021/01/02 04:56:49;;;;;;;55.53;23.63;;;;;;;;;;12889395;23;20221;-55
2021/01/02 05:01:52;;;;;;;48.83;22.43;;;;;;;;;;12883655;23;20203;-56
2021/01/02 05:06:53;;;;;;;59.90;23.60;;;;;;;;;;12886675;23;20206;-55
2021/01/02 05:11:55;;;;;;;55.93;22.83;;;;;;;;;;12885886;23;20206;-54
2021/01/02 05:16:57;;;;;;;52.60;23.67;;;;;;;;;;12888340;23;20178;-52
2021/01/02 05:22:00;;;;;;;61.87;24.37;;;;;;;;;;12884505;23;20175;-54
2021/01/02 05:27:01;;;;;;;47.53;22.87;;;;;;;;;;12887888;23;20210;-56
2021/01/02 05:32:04;;;;;;;53.80;23.40;;;;;;;;;;12884724;23;20206;-57
2021/01/02 05:37:06;;;;;;;51.77;22.93;;;;;;;;;;12884356;23;20183;-55
2021/01/02 05:42:08;;;;;;;55.20;23.40;;;;;;;;;;12885128;23;20555;-56
2021/01/02 05:47:12;;;;;;;55.53;23.90;;;;;;;;;;12886973;23;20839;-56
2021/01/02 05:52:14;;;;;;;55.87;23.50;;;;;;;;;;12883627;23;20217;-56
2021/01/02 05:57:24;;;;;;;57.53;23.47;;;;;;;;;;12886891;23;20179;-56
2021/01/02 06:02:29;;;;;;;67.30;23.77;;;;;;;;;;12898942;23;20203;-55
2021/01/02 06:07:32;;;;;;;68.07;25.23;;;;;;;;;;12884883;23;20620;-55
2021/01/02 06:12:34;;;;;;;69.30;23.43;;;;;;;;;;12882954;23;20316;-55
2021/01/02 06:17:38;;;;;;;71.23;24.23;;;;;;;;;;12886427;23;20174;-54
2021/01/02 06:22:41;;;;;;;71.23;24.43;;;;;;;;;;12885568;23;20175;-55
2021/01/02 06:27:43;;;;;;;65.07;24.90;;;;;;;;;;12888762;23;20274;-55
2021/01/02 06:32:46;;;;;;;66.17;24.47;;;;;;;;;;12882982;23;20217;-54
2021/01/02 06:38:04;;;;;;;71.53;25.33;;;;;;;;;;12902339;23;20230;-55
2021/01/02 06:43:07;;;;;;;70.07;24.30;;;;;;;;;;12882434;23;20512;-56
2021/01/02 06:48:24;;;;;;;62.93;24.00;;;;;;;;;;12881219;23;20179;-55
2021/01/02 06:53:27;;;;;;;79.20;25.27;;;;;;;;;;12882890;22;20211;-55
2021/01/02 06:58:36;;;;;;;81.23;26.70;;;;;;;;;;12885795;23;20180;-56
2021/01/02 07:03:44;;;;;;;78.87;26.70;;;;;;;;;;12885802;23;20207;-54
2021/01/02 07:08:47;;;;;;;89.97;26.87;;;;;;;;;;12881199;23;20179;-55
2021/01/02 07:13:49;;;;;;;76.00;25.07;;;;;;;;;;12886840;23;20210;-56
2021/01/02 07:18:51;;;;;;;68.67;25.70;;;;;;;;;;12883223;23;20203;-56
2021/01/02 07:23:54;;;;;;;73.07;25.77;;;;;;;;;;12884693;22;20382;-56
2021/01/02 07:28:55;;;;;;;79.07;26.13;;;;;;;;;;12838469;23;1082893;-53
2021/01/02 07:33:57;;;;;;;72.73;25.43;;;;;;;;;;12889720;23;20210;-54
2021/01/02 07:39:00;;;;;;;76.17;25.83;;;;;;;;;;12886863;23;20190;-55
2021/01/02 07:44:03;;;;;;;79.37;25.93;;;;;;;;;;12888402;23;20524;-55
2021/01/02 07:49:05;;;;;;;76.87;25.30;;;;;;;;;;12885810;22;20189;-57
2021/01/02 07:54:07;;;;;;;83.93;28.13;;;;;;;;;;12888248;23;20205;-56
2021/01/02 07:59:22;;;;;;;87.33;27.23;;;;;;;;;;12887315;23;20179;-55
2021/01/02 08:04:24;;;;;;;76.97;26.17;;;;;;;;;;12888245;23;20194;-56
2021/01/02 08:09:27;;;;;;;73.00;26.20;;;;;;;;;;12885572;23;20179;-54
2021/01/02 08:14:30;;;;;;;84.60;26.83;;;;;;;;;;12889421;23;20213;-57
2021/01/02 08:19:33;;;;;;;88.03;28.23;;;;;;;;;;12886681;23;20175;-56
2021/01/02 08:24:35;;;;;;;90.93;28.47;;;;;;;;;;12886450;23;20910;-54
2021/01/02 08:29:37;;;;;;;94.30;30.00;;;;;;;;;;12886033;23;20269;-54
2021/01/02 08:34:44;;;;;;;84.53;27.37;;;;;;;;;;12887050;23;20179;-55
2021/01/02 08:39:47;;;;;;;78.63;27.33;;;;;;;;;;12904876;23;20171;-55
2021/01/02 08:44:49;;;;;;;79.17;28.27;;;;;;;;;;12889320;23;20711;-56
2021/01/02 08:49:50;;;;;;;81.20;27.00;;;;;;;;;;12884764;23;20179;-57
2021/01/02 08:54:54;;;;;;;87.63;27.83;;;;;;;;;;12888448;23;20171;-55
2021/01/02 09:00:06;;;;;;;85.40;27.90;;;;;;;;;;12884909;23;20175;-56
2021/01/02 09:05:09;;;;;;;73.23;26.10;;;;;;;;;;12886420;23;20199;-55
2021/01/02 09:10:12;;;;;;;67.43;24.63;;;;;;;;;;12883542;23;20207;-55
2021/01/02 09:15:14;;;;;;;77.53;24.73;;;;;;;;;;12883934;23;20175;-55
2021/01/02 09:20:16;;;;;;;62.83;24.70;;;;;;;;;;12881150;23;20181;-55
2021/01/02 09:25:19;;;;;;;67.23;24.37;;;;;;;;;;12888428;23;20175;-55
2021/01/02 09:30:21;;;;;;;68.40;25.23;;;;;;;;;;12885468;23;20210;-56
2021/01/02 09:35:23;;;;;;;67.70;24.80;;;;;;;;;;12885709;23;20240;-56
2021/01/02 09:40:26;;;;;;;73.30;25.57;;;;;;;;;;12889049;23;20186;-56
2021/01/02 09:45:27;;;;;;;61.80;25.23;;;;;;;;;;12887041;23;20171;-57
2021/01/02 09:50:29;;;;;;;73.40;27.33;;;;;;;;;;12878733;23;20213;-54
2021/01/02 09:55:32;;;;;;;74.07;25.27;;;;;;;;;;12877948;23;20181;-57
2021/01/02 10:00:33;;;;;;;75.50;26.13;;;;;;;;;;12881257;23;20181;-55
2021/01/02 10:05:35;;;;;;;67.17;24.53;;;;;;;;;;12873301;23;20627;-55
2021/01/02 10:10:37;;;;;;;64.93;23.80;;;;;;;;;;12877778;23;20203;-56
2021/01/02 10:15:39;;;;;;;61.63;24.57;;;;;;;;;;12879088;23;20183;-55
2021/01/02 10:20:41;;;;;;;63.30;23.97;;;;;;;;;;12876187;23;20179;-53
2021/01/02 10:25:44;;;;;;;64.53;24.83;;;;;;;;;;12877928;23;20175;-55
2021/01/02 10:30:45;;;;;;;68.97;25.97;;;;;;;;;;12877283;23;20215;-54
2021/01/02 10:35:47;;;;;;;66.60;25.20;;;;;;;;;;12876555;23;20181;-56
2021/01/02 10:40:51;;;;;;;66.60;24.70;;;;;;;;;;12879355;23;20182;-55
2021/01/02 10:45:53;;;;;;;65.57;24.67;;;;;;;;;;12876517;23;20253;-55
2021/01/02 10:50:55;;;;;;;65.40;25.17;;;;;;;;;;12876919;23;20724;-54
2021/01/02 10:55:58;;;;;;;66.20;24.90;;;;;;;;;;12876964;23;20182;-57
2021/01/02 11:01:00;;;;;;;62.23;24.70;;;;;;;;;;12880260;23;20179;-56
2021/01/02 11:06:03;;;;;;;72.00;24.60;;;;;;;;;;12872165;23;20195;-56
2021/01/02 11:11:06;;;;;;;70.33;26.30;;;;;;;;;;12879732;23;20207;-57
2021/01/02 11:16:08;;;;;;;67.80;24.93;;;;;;;;;;12879239;23;20179;-55
2021/01/02 11:21:10;;;;;;;68.77;24.97;;;;;;;;;;12878273;23;20183;-56
2021/01/02 11:26:12;;;;;;;75.20;26.57;;;;;;;;;;12876018;23;20210;-56
2021/01/02 11:31:14;;;;;;;68.17;24.57;;;;;;;;;;12876820;23;20218;-54
2021/01/02 11:36:15;;;;;;;66.47;25.63;;;;;;;;;;12876787;23;20209;-56
2021/01/02 11:41:19;;;;;;;64.53;23.83;;;;;;;;;;12883448;23;20645;-56
2021/01/02 11:46:26;;;;;;;68.67;26.43;;;;;;;;;;12880084;23;20182;-55
2021/01/02 11:51:27;;;;;;;84.07;27.63;;;;;;;;;;12902998;23;20195;-56
2021/01/02 11:56:30;;;;;;;73.10;26.17;;;;;;;;;;12878903;23;20179;-54
2021/01/02 12:01:36;;;;;;;71.33;26.03;;;;;;;;;;12881355;23;20645;-56
2021/01/02 12:06:38;;;;;;;69.63;25.50;;;;;;;;;;12874789;23;20987;-55
2021/01/02 12:11:41;;;;;;;56.50;22.20;;;;;;;;;;12879728;23;20217;-56
2021/01/02 12:16:43;;;;;;;54.00;22.50;;;;;;;;;;12878977;23;20179;-57
2021/01/02 12:21:45;;;;;;;62.10;24.23;;;;;;;;;;12880966;23;20175;-56
2021/01/02 12:26:48;;;;;;;64.73;24.57;;;;;;;;;;12885783;23;20629;-54
2021/01/02 12:31:51;;;;;;;66.40;25.80;;;;;;;;;;12899287;23;20199;-55
2021/01/02 12:36:54;;;;;;;65.70;24.87;;;;;;;;;;12879635;23;20550;-55
2021/01/02 12:41:56;;;;;;;63.30;25.73;;;;;;;;;;12878121;23;20611;-57
2021/01/02 12:46:59;;;;;;;71.53;27.33;;;;;;;;;;12881022;22;20179;-56
2021/01/02 12:52:02;;;;;;;83.13;29.47;;;;;;;;;;12877277;23;20228;-56
2021/01/02 12:57:05;;;;;;;85.97;29.57;;;;;;;;;;12883389;23;20179;-56
2021/01/02 13:02:08;;;;;;;82.27;29.57;;;;;;;;;;12878515;23;20524;-57
2021/01/02 13:07:11;;;;;;;87.33;29.30;;;;;;;;;;12880204;23;20179;-57
2021/01/02 13:12:14;;;;;;;77.53;28.70;;;;;;;;;;12880528;23;20203;-55
2021/01/02 13:17:16;;;;;;;70.33;26.77;;;;;;;;;;12879915;23;20175;-57
2021/01/02 13:22:22;;;;;;;76.03;27.40;;;;;;;;;;12897537;23;20558;-55
2021/01/02 13:27:24;;;;;;;66.30;25.63;;;;;;;;;;12882909;23;20207;-54
2021/01/02 13:32:26;;;;;;;55.97;23.03;;;;;;;;;;12879571;23;20211;-54
2021/01/02 13:37:28;;;;;;;66.10;25.20;;;;;;;;;;12878303;23;20175;-54
2021/01/02 13:42:30;;;;;;;60.37;23.60;;;;;;;;;;12876784;23;20176;-56
2021/01/02 13:47:32;;;;;;;56.07;22.00;;;;;;;;;;12878415;23;21065;-57
2021/01/02 13:52:33;;;;;;;55.57;21.03;;;;;;;;;;12875997;23;20209;-56
2021/01/02 13:57:36;;;;;;;56.97;21.10;;;;;;;;;;12879740;23;20178;-56
2021/01/02 14:02:38;;;;;;;62.23;24.57;;;;;;;;;;12878310;23;20195;-55
2021/01/02 14:07:39;;;;;;;68.83;24.63;;;;;;;;;;12880040;23;20208;-53
2021/01/02 14:12:42;;;;;;;57.90;21.57;;;;;;;;;;12878135;23;20274;-54
2021/01/02 14:17:43;;;;;;;53.83;21.77;;;;;;;;;;12876763;23;20177;-52
2021/01/02 14:22:45;;;;;;;60.33;24.47;;;;;;;;;;12874852;23;20183;-55
2021/01/02 14:27:47;;;;;;;62.10;23.63;;;;;;;;;;12880499;23;20202;-51
2021/01/02 14:32:49;;;;;;;68.10;23.00;;;;;;;;;;12874114;23;20206;-53
2021/01/02 14:37:55;;;;;;;58.70;21.20;;;;;;;;;;12875568;23;20183;-54
2021/01/02 14:42:58;;;;;;;60.60;24.43;;;;;;;;;;12877021;23;20370;-56
2021/01/02 14:48:00;;;;;;;65.60;24.97;;;;;;;;;;12880070;23;20175;-55
2021/01/02 14:53:05;;;;;;;68.50;24.03;;;;;;;;;;12873994;23;20206;-53
2021/01/02 14:58:08;;;;;;;57.70;22.93;;;;;;;;;;12878620;23;20186;-56
2021/01/02 15:03:10;;;;;;;62.10;22.93;;;;;;;;;;12868338;23;20244;-54
2021/01/02 15:08:11;;;;;;;62.63;23.27;;;;;;;;;;12881444;23;20534;-55
2021/01/02 15:13:14;;;;;;;62.07;23.40;;;;;;;;;;12880725;23;20696;-54
2021/01/02 15:18:15;;;;;;;65.00;23.47;;;;;;;;;;12882888;23;20175;-53
2021/01/02 15:23:17;;;;;;;59.73;22.83;;;;;;;;;;12880936;23;20179;-53
2021/01/02 15:28:20;;;;;;;64.53;23.40;;;;;;;;;;12872928;23;20211;-53
2021/01/02 15:33:22;;;;;;;71.73;25.10;;;;;;;;;;12881259;23;20754;-53
2021/01/02 15:38:24;;;;;;;64.00;23.33;;;;;;;;;;12879373;23;20179;-55
2021/01/02 15:43:28;;;;;;;71.77;25.13;;;;;;;;;;12882958;23;20659;-53
2021/01/02 15:48:30;;;;;;;70.00;23.37;;;;;;;;;;12878759;23;20384;-53
2021/01/02 15:53:32;;;;;;;61.77;23.73;;;;;;;;;;12881713;23;20209;-55
2021/01/02 15:58:34;;;;;;;58.83;22.67;;;;;;;;;;12884159;23;20175;-52
2021/01/02 16:03:36;;;;;;;68.67;25.63;;;;;;;;;;12878430;23;20199;-56
2021/01/02 16:08:38;;;;;;;78.77;26.43;;;;;;;;;;12881925;23;20570;-54
2021/01/02 16:13:40;;;;;;;67.63;25.60;;;;;;;;;;12875641;23;20778;-53
2021/01/02 16:18:43;;;;;;;76.50;26.17;;;;;;;;;;12880310;23;20454;-54
2021/01/02 16:23:44;;;;;;;81.00;27.03;;;;;;;;;;12877066;23;20179;-56
2021/01/02 16:28:47;;;;;;;79.17;26.53;;;;;;;;;;12878595;23;20530;-51
2021/01/02 16:33:49;;;;;;;80.70;26.47;;;;;;;;;;12876767;23;20217;-56
2021/01/02 16:38:52;;;;;;;80.47;26.27;;;;;;;;;;12880398;23;20175;-56
2021/01/02 16:43:55;;;;;;;80.47;26.97;;;;;;;;;;12878042;23;20286;-56
2021/01/02 16:48:58;;;;;;;75.57;25.97;;;;;;;;;;12879971;23;20190;-55
2021/01/02 16:53:59;;;;;;;75.27;25.80;;;;;;;;;;12875636;23;20203;-54
2021/01/02 16:59:02;;;;;;;78.20;27.67;;;;;;;;;;12880853;23;20180;-56
2021/01/02 17:04:04;;;;;;;106.70;32.87;;;;;;;;;;12876478;23;20734;-57
2021/01/02 17:09:07;;;;;;;104.33;31.70;;;;;;;;;;12880321;23;20186;-56
2021/01/02 17:14:11;;;;;;;125.13;40.40;;;;;;;;;;12877019;23;20207;-53
2021/01/02 17:19:14;;;;;;;109.33;36.00;;;;;;;;;;12879983;23;20487;-55
2021/01/02 17:24:16;;;;;;;113.33;33.13;;;;;;;;;;12876558;23;20190;-55
2021/01/02 17:29:18;;;;;;;117.57;33.87;;;;;;;;;;12878103;23;20218;-54
2021/01/02 17:34:21;;;;;;;102.07;32.50;;;;;;;;;;12875714;23;20207;-51
2021/01/02 17:39:24;;;;;;;113.03;34.10;;;;;;;;;;12878332;23;20230;-52
2021/01/02 17:44:27;;;;;;;98.47;32.53;;;;;;;;;;12882973;23;20179;-53
2021/01/02 17:49:29;;;;;;;104.87;32.70;;;;;;;;;;12876479;23;20179;-57
2021/01/02 17:54:31;;;;;;;94.63;31.93;;;;;;;;;;12875831;23;20213;-56
2021/01/02 17:59:33;;;;;;;94.93;32.23;;;;;;;;;;12878329;23;20175;-56
2021/01/02 18:04:35;;;;;;;107.57;34.00;;;;;;;;;;12878062;23;20657;-54
2021/01/02 18:09:38;;;;;;;116.57;37.97;;;;;;;;;;12875753;23;20179;-51
2021/01/02 18:14:40;;;;;;;113.60;36.30;;;;;;;;;;12879138;23;20221;-56
2021/01/02 18:19:42;;;;;;;111.63;35.47;;;;;;;;;;12876118;23;20584;-55
2021/01/02 18:24:44;;;;;;;121.17;37.97;;;;;;;;;;12876516;23;20194;-57
2021/01/02 18:29:46;;;;;;;123.50;39.17;;;;;;;;;;12875116;23;20202;-56
2021/01/02 18:34:48;;;;;;;125.00;38.67;;;;;;;;;;12878031;23;20677;-56
2021/01/02 18:39:50;;;;;;;112.40;37.50;;;;;;;;;;12877228;23;20179;-56
2021/01/02 18:44:53;;;;;;;132.43;40.93;;;;;;;;;;12878640;23;20488;-56
2021/01/02 18:49:54;;;;;;;135.63;39.93;;;;;;;;;;12877922;23;20622;-58
2021/01/02 18:54:56;;;;;;;124.90;39.07;;;;;;;;;;12884300;23;20206;-56
2021/01/02 18:59:58;;;;;;;128.33;40.63;;;;;;;;;;12881768;23;20177;-56
2021/01/02 19:05:01;;;;;;;121.37;39.73;;;;;;;;;;12878777;23;20199;-55
2021/01/02 19:10:03;;;;;;;119.63;38.27;;;;;;;;;;12880683;23;20498;-53
2021/01/02 19:15:07;;;;;;;115.73;38.33;;;;;;;;;;12883846;23;20206;-55
2021/01/02 19:20:09;;;;;;;115.97;39.47;;;;;;;;;;12878182;23;20175;-57
2021/01/02 19:25:11;;;;;;;121.13;37.70;;;;;;;;;;12883023;23;20207;-55
2021/01/02 19:30:14;;;;;;;114.70;37.40;;;;;;;;;;12877736;23;20317;-52
2021/01/02 19:35:16;;;;;;;106.97;35.53;;;;;;;;;;12880942;23;20214;-54
2021/01/02 19:40:18;;;;;;;98.80;35.93;;;;;;;;;;12878831;23;20175;-55
2021/01/02 19:45:20;;;;;;;104.20;36.93;;;;;;;;;;12882143;23;20179;-54
2021/01/02 19:50:22;;;;;;;107.33;36.67;;;;;;;;;;12878793;23;20178;-54
2021/01/02 19:55:24;;;;;;;110.67;35.57;;;;;;;;;;12882403;23;20727;-53
2021/01/02 20:00:27;;;;;;;118.23;36.20;;;;;;;;;;12878429;23;20175;-55
2021/01/02 20:05:28;;;;;;;117.50;37.70;;;;;;;;;;12880396;23;20685;-59
2021/01/02 20:10:30;;;;;;;112.57;37.00;;;;;;;;;;12880524;23;20186;-55
2021/01/02 20:15:33;;;;;;;113.70;37.53;;;;;;;;;;12880567;23;20207;-55
2021/01/02 20:20:34;;;;;;;108.93;37.63;;;;;;;;;;12880055;23;20179;-56
2021/01/02 20:25:36;;;;;;;118.07;37.17;;;;;;;;;;12880850;23;20607;-56
2021/01/02 20:30:40;;;;;;;101.43;36.37;;;;;;;;;;12880664;23;20236;-57
2021/01/02 20:35:42;;;;;;;102.50;37.37;;;;;;;;;;12877935;23;20218;-54
2021/01/02 20:40:44;;;;;;;107.47;37.20;;;;;;;;;;12881893;23;20186;-59
2021/01/02 20:45:47;;;;;;;107.00;37.67;;;;;;;;;;12879375;23;20576;-55
2021/01/02 20:50:49;;;;;;;102.70;35.97;;;;;;;;;;12878401;23;20209;-56
2021/01/02 20:55:50;;;;;;;114.60;37.20;;;;;;;;;;12877013;23;20220;-59
2021/01/02 21:00:53;;;;;;;106.27;34.70;;;;;;;;;;12878894;23;20533;-53
2021/01/02 21:05:56;;;;;;;105.73;36.13;;;;;;;;;;12876847;23;20195;-56
2021/01/02 21:10:58;;;;;;;112.60;36.33;;;;;;;;;;12879354;23;20854;-59
2021/01/02 21:16:00;;;;;;;113.23;36.67;;;;;;;;;;12877037;23;20210;-59
2021/01/02 21:21:03;;;;;;;118.57;37.73;;;;;;;;;;12877860;23;20648;-59
2021/01/02 21:26:04;;;;;;;118.10;37.77;;;;;;;;;;12878672;23;20183;-58
2021/01/02 21:31:07;;;;;;;122.33;37.20;;;;;;;;;;12878680;23;20247;-60
2021/01/02 21:36:09;;;;;;;132.77;38.33;;;;;;;;;;12877649;23;20189;-56
2021/01/02 21:41:12;;;;;;;119.80;39.30;;;;;;;;;;12879139;23;20183;-59
2021/01/02 21:46:20;;;;;;;138.23;38.13;;;;;;;;;;12877130;23;20187;-56
2021/01/02 21:51:23;;;;;;;139.10;40.70;;;;;;;;;;12877029;23;20175;-56
2021/01/02 21:56:26;;;;;;;131.27;39.20;;;;;;;;;;12876955;23;20190;-58
2021/01/02 22:01:28;;;;;;;128.83;41.47;;;;;;;;;;12880678;23;20179;-58
2021/01/02 22:06:30;;;;;;;150.83;40.13;;;;;;;;;;12874951;23;20175;-59
2021/01/02 22:11:32;;;;;;;150.63;42.83;;;;;;;;;;12878185;23;20179;-60
2021/01/02 22:16:35;;;;;;;159.87;43.00;;;;;;;;;;12876737;23;20175;-59
2021/01/02 22:21:37;;;;;;;150.03;42.53;;;;;;;;;;12878863;23;20186;-56
2021/01/02 22:26:47;;;;;;;136.73;42.63;;;;;;;;;;12904321;23;20224;-56
2021/01/02 22:31:50;;;;;;;126.57;40.50;;;;;;;;;;12885738;23;20214;-56
2021/01/02 22:36:53;;;;;;;150.13;40.37;;;;;;;;;;12882075;23;20261;-57
2021/01/02 22:41:59;;;;;;;113.17;36.53;;;;;;;;;;12884762;23;20179;-55
2021/01/02 22:47:03;;;;;;;127.63;37.97;;;;;;;;;;12885114;23;20175;-56
2021/01/02 22:52:05;;;;;;;134.47;37.67;;;;;;;;;;12882335;23;20696;-57
2021/01/02 22:57:08;;;;;;;134.17;38.97;;;;;;;;;;12885075;23;20193;-56
2021/01/02 23:02:12;;;;;;;124.23;36.23;;;;;;;;;;12884052;23;20198;-56
2021/01/02 23:07:15;;;;;;;96.90;33.70;;;;;;;;;;12885502;23;20178;-57
2021/01/02 23:12:17;;;;;;;73.80;27.07;;;;;;;;;;12884709;23;20635;-56
2021/01/02 23:17:20;;;;;;;74.93;27.10;;;;;;;;;;12886546;23;20176;-56
2021/01/02 23:22:25;;;;;;;70.70;25.67;;;;;;;;;;12903294;23;20619;-56
2021/01/02 23:27:27;;;;;;;67.87;23.40;;;;;;;;;;12885204;23;20175;-56
2021/01/02 23:32:29;;;;;;;67.43;23.53;;;;;;;;;;12904542;23;20194;-55
2021/01/02 23:37:31;;;;;;;66.90;24.63;;;;;;;;;;12886538;23;20182;-57
2021/01/02 23:42:33;;;;;;;69.03;24.80;;;;;;;;;;12886663;23;20175;-55
2021/01/02 23:47:35;;;;;;;73.57;25.87;;;;;;;;;;12889256;23;20177;-56
2021/01/02 23:52:37;;;;;;;70.90;27.37;;;;;;;;;;12884492;23;20701;-55
2021/01/02 23:57:39;;;;;;;75.33;25.53;;;;;;;;;;12890423;23;20175;-55
